Pagrindinis puslapis
METAR-TAF:

METAR-TAF

Oro uostai :

Mariboras, Slovėnija

platuma: 46-29N, ilguma: 015-41E, Aukštis: 264 m

Dabartinis oras

Ataskaita buvo paskelbta 20 minutes, ne 08:00 UTC
Ramus vėjas
Temperatūra -2°C
Drėgmė 86%
Slėgis 1022 hPa
Matomumas: 7000 m

METAR: LJMB 190800Z 00000KT 7000 NSC M02/M04 Q1022

Laikas: 09:20 (08:20 UTC)

Prognozė

Ataskaita buvo paskelbta 3 valandos ir 20 minutes, ne 05:00 UTC
Prognozė galioja nuo 19 metu 06 UTC su 20 metu 06 UTC
Vėjas 2 kt nuo kintamojo kryptimis
Matomumas 10 km arba daugiau
nėra debesų žemiau 1500 m ir nėra kamuolinių lietaus debesų
Tapsmas
nuo 19 metu 11 UTC su 19 metu 14 UTC
Vėjas 10 kt iš Pietų/Pietvakarių

TAF: LJMB 190500Z 1906/2006 VRB02KT CAVOK BECMG 1911/1914 20010KT

Orai ataskaitas ir orų prognozės (METAR, TAF).

turimą stotys yra geltonos ir raudonos taškus žemėlapyje.

Perkelti pele per norėdami pamatyti stoties vardą.

Tada spustelėkite, norėdami matyti oro stebėjimo ir prognozės.

Norėdami pakeisti žemėlapį: spustelėkite ant žalios mygtukų su juodo kryžiaus žemyn,; žalią mygtuką su brūkšneliu, jei norite nutolinti; arba žalių rodyklių gretimoms žemėlapius.


METAR-TAF: